Time;durP1;ratioP1;P1;durP2;ratioP2;P2;SDS_P1;SDS_P2;PMS_P1;PMS_P2;Temp;Humidity;BMP_temperature;BMP_pressure;BME280_temperature;BME280_humidity;BME280_pressure;Samples;Min_cycle;Max_cycle;Signal;HPM_P1;HPM_P2
2022/11/14 00:02:18;;;;;;;60.17;22.27;;;;;;;19.27;100.00;98172.88;6057760;23;20014;-90
2022/11/14 00:04:48;;;;;;;59.92;22.17;;;;;;;18.35;100.00;98179.34;6056332;23;20026;-91
2022/11/14 00:07:14;;;;;;;70.78;23.88;;;;;;;17.90;100.00;98178.03;6079664;23;20086;-90
2022/11/14 00:09:43;;;;;;;70.82;25.10;;;;;;;18.53;100.00;98166.16;6056946;23;20031;-90
2022/11/14 00:12:09;;;;;;;63.83;24.13;;;;;;;18.20;100.00;98170.38;6079465;23;20176;-90
2022/11/14 00:14:36;;;;;;;74.20;25.45;;;;;;;18.16;100.00;98168.88;6057558;23;20014;-90
2022/11/14 00:17:02;;;;;;;70.50;24.40;;;;;;;18.77;100.00;98169.31;6056609;23;20030;-89
2022/11/14 00:19:28;;;;;;;73.65;25.13;;;;;;;18.72;100.00;98160.78;6057480;23;20014;-90
2022/11/14 00:21:54;;;;;;;64.57;22.75;;;;;;;18.67;100.00;98157.53;6056199;23;20015;-90
2022/11/14 00:24:19;;;;;;;76.03;23.92;;;;;;;18.70;100.00;98154.72;6079693;23;20118;-90
2022/11/14 00:26:45;;;;;;;62.00;23.13;;;;;;;18.25;100.00;98147.28;6058080;23;20007;-89
2022/11/14 00:29:12;;;;;;;66.38;23.83;;;;;;;18.12;100.00;98148.84;6080972;23;20559;-90
2022/11/14 00:31:38;;;;;;;71.50;24.73;;;;;;;18.17;100.00;98149.44;6057164;23;20015;-90
2022/11/14 00:34:04;;;;;;;66.60;24.60;;;;;;;17.81;100.00;98142.38;6080369;23;20348;-91
2022/11/14 00:36:29;;;;;;;69.63;25.23;;;;;;;18.18;100.00;98137.97;6079472;23;20110;-89
2022/11/14 00:38:55;;;;;;;68.72;24.40;;;;;;;18.54;100.00;98131.75;6056482;23;20101;-90
2022/11/14 00:41:20;;;;;;;71.72;24.77;;;;;;;19.65;100.00;98119.66;6057039;23;20033;-90
2022/11/14 00:43:46;;;;;;;69.32;24.98;;;;;;;17.86;100.00;98127.19;6057126;23;20011;-90
2022/11/14 00:46:12;;;;;;;62.70;23.33;;;;;;;18.47;100.00;98118.91;6080315;23;20017;-90
2022/11/14 00:48:37;;;;;;;55.80;23.42;;;;;;;19.31;100.00;98116.25;6080176;23;20003;-91
2022/11/14 00:51:03;;;;;;;55.92;21.35;;;;;;;18.38;100.00;98121.09;6080050;23;20094;-90
2022/11/14 00:53:28;;;;;;;59.10;22.95;;;;;;;18.73;100.00;98123.72;6080122;23;20386;-90
2022/11/14 00:55:54;;;;;;;61.83;23.50;;;;;;;18.35;100.00;98115.13;6059369;23;20007;-89
2022/11/14 00:58:20;;;;;;;53.35;22.50;;;;;;;19.25;100.00;98098.09;6057089;23;20030;-90
2022/11/14 01:00:45;;;;;;;53.33;21.45;;;;;;;19.56;100.00;98099.88;6055461;23;20015;-89
2022/11/14 01:03:11;;;;;;;53.03;22.08;;;;;;;19.11;100.00;98098.84;6079763;23;20460;-91
2022/11/14 01:05:54;;;;;;;53.55;22.23;;;;;;;18.50;100.00;98103.78;6056137;23;20349;-90
2022/11/14 01:08:19;;;;;;;;;;;;;;;18.29;100.00;98102.25;6081098;23;20410;-90
2022/11/14 01:10:47;;;;;;;58.30;22.05;;;;;;;17.85;100.00;98103.53;6055935;23;19948;-90
2022/11/14 01:13:14;;;;;;;56.47;22.83;;;;;;;18.57;100.00;98091.97;6055737;23;20735;-90
2022/11/14 01:15:41;;;;;;;56.47;21.52;;;;;;;18.67;100.00;98089.69;6080447;23;20046;-90
2022/11/14 01:18:10;;;;;;;58.60;22.70;;;;;;;18.17;100.00;98086.09;6055315;23;20025;-90
2022/11/14 01:20:39;;;;;;;57.75;22.48;;;;;;;17.87;100.00;98091.97;6078758;23;20006;-91
2022/11/14 01:23:05;;;;;;;64.30;22.85;;;;;;;18.27;100.00;98080.34;6054966;23;20045;-90
2022/11/14 01:25:32;;;;;;;58.53;22.52;;;;;;;18.66;100.00;98072.13;6058226;23;20598;-90
2022/11/14 01:27:58;;;;;;;56.78;21.70;;;;;;;19.65;100.00;98053.53;6057991;23;20849;-90
2022/11/14 01:30:23;;;;;;;55.22;22.02;;;;;;;18.43;100.00;98068.09;6080549;23;20015;-90
2022/11/14 01:32:49;;;;;;;55.42;21.58;;;;;;;18.52;100.00;98069.38;6079954;23;20014;-90
2022/11/14 01:35:14;;;;;;;58.65;22.88;;;;;;;19.70;100.00;98061.22;6081030;23;20044;-89
2022/11/14 01:37:40;;;;;;;60.90;21.73;;;;;;;18.98;100.00;98060.81;6057968;23;20058;-91
2022/11/14 01:40:06;;;;;;;57.03;22.52;;;;;;;19.00;100.00;98065.09;6058574;23;20342;-90
2022/11/14 01:42:32;;;;;;;61.30;22.45;;;;;;;18.89;100.00;98063.00;6058399;23;20011;-90
2022/11/14 01:44:57;;;;;;;60.95;23.15;;;;;;;18.68;100.00;98061.50;6057620;23;20105;-90
2022/11/14 01:47:31;;;;;;;54.67;21.70;;;;;;;18.95;100.00;98053.91;6081450;23;20022;-90
2022/11/14 01:50:03;;;;;;;51.80;20.95;;;;;;;20.16;100.00;98053.25;6057841;23;20348;-90
2022/11/14 01:52:38;;;;;;;48.45;20.67;;;;;;;20.13;100.00;98049.00;6058564;23;20007;-91
2022/11/14 01:55:07;;;;;;;52.25;20.83;;;;;;;18.75;100.00;98054.97;6081949;23;20644;-90
2022/11/14 01:57:37;;;;;;;56.22;20.75;;;;;;;18.52;100.00;98051.75;6057577;23;20082;-90
2022/11/14 02:00:07;;;;;;;48.70;20.05;;;;;;;19.29;100.00;98057.34;6057956;23;20028;-90
2022/11/14 02:02:33;;;;;;;50.22;19.85;;;;;;;18.31;100.00;98066.06;6057970;23;20020;-91
2022/11/14 02:05:17;;;;;;;47.33;20.38;;;;;;;19.54;100.00;98059.44;6059197;23;20013;-90
2022/11/14 02:07:43;;;;;;;50.47;21.20;;;;;;;18.25;100.00;98067.25;6060119;23;20070;-90
2022/11/14 02:10:15;;;;;;;51.25;21.30;;;;;;;19.02;100.00;98059.72;6082147;23;20015;-90
2022/11/14 02:12:41;;;;;;;64.85;21.95;;;;;;;18.48;100.00;98058.09;6057028;23;20018;-90
2022/11/14 02:15:08;;;;;;;50.05;19.70;;;;;;;18.36;100.00;98059.63;6056404;23;20021;-90
2022/11/14 02:17:34;;;;;;;48.45;19.17;;;;;;;18.42;100.00;98048.72;6082661;23;20054;-90
2022/11/14 02:20:08;;;;;;;56.13;20.58;;;;;;;17.96;100.00;98056.38;6059182;23;20022;-90
2022/11/14 02:22:34;;;;;;;57.15;20.52;;;;;;;18.30;100.00;98046.75;6082257;23;20018;-90
2022/11/14 02:24:59;;;;;;;53.75;19.02;;;;;;;18.38;100.00;98035.78;6080802;23;20128;-90
2022/11/14 02:27:25;;;;;;;56.88;20.08;;;;;;;18.44;100.00;98035.47;6081581;23;20021;-90
2022/11/14 02:29:50;;;;;;;60.10;20.77;;;;;;;17.91;100.00;98032.88;6057421;23;20010;-89
2022/11/14 02:32:16;;;;;;;61.97;20.02;;;;;;;18.14;100.00;98022.09;6081425;23;20033;-89
2022/11/14 02:34:41;;;;;;;61.13;21.00;;;;;;;18.03;100.00;98022.63;6058224;23;20092;-90
2022/11/14 02:37:07;;;;;;;70.93;21.40;;;;;;;18.34;100.00;98016.59;6056496;23;20066;-90
2022/11/14 02:39:32;;;;;;;83.95;21.25;;;;;;;17.94;100.00;98016.06;6059454;23;20029;-90
2022/11/14 02:41:58;;;;;;;67.22;20.42;;;;;;;18.47;100.00;98010.66;6059409;23;20022;-91
2022/11/14 02:44:26;;;;;;;111.32;24.30;;;;;;;17.85;100.00;98008.56;6059170;23;20015;-90
2022/11/14 02:46:52;;;;;;;128.05;25.33;;;;;;;18.69;100.00;98005.97;6082421;23;20613;-91
2022/11/14 02:49:17;;;;;;;180.27;26.73;;;;;;;19.02;100.00;97994.50;6081740;23;20101;-90
2022/11/14 02:51:43;;;;;;;184.32;28.55;;;;;;;19.38;100.00;97993.34;6055448;23;20110;-89
2022/11/14 02:54:08;;;;;;;495.67;47.95;;;;;;;18.76;100.00;97998.53;6081266;23;20016;-91
2022/11/14 02:56:34;;;;;;;597.08;52.75;;;;;;;17.70;100.00;98005.78;6082959;23;20010;-91
2022/11/14 02:58:59;;;;;;;524.58;52.95;;;;;;;18.39;100.00;97996.09;6078975;23;20157;-90
2022/11/14 03:04:00;;;;;;;566.65;56.83;;;;;;;17.89;100.00;97994.28;6041504;23;20027;-94
2022/11/14 03:06:25;;;;;;;346.35;35.38;;;;;;;19.02;100.00;97972.50;6009845;23;20015;-93
2022/11/14 03:08:54;;;;;;;434.15;40.83;;;;;;;17.97;100.00;97986.00;6011076;23;20015;-94
2022/11/14 03:11:19;;;;;;;403.05;39.75;;;;;;;18.16;100.00;97978.84;6012147;23;20007;-93
2022/11/14 03:13:44;;;;;;;402.83;41.13;;;;;;;19.02;100.00;97967.22;6010015;23;20022;-94
2022/11/14 03:16:12;;;;;;;347.08;35.95;;;;;;;19.07;100.00;97966.03;6010964;23;20427;-95
2022/11/14 03:18:38;;;;;;;376.00;37.55;;;;;;;18.84;100.00;97972.53;6010468;23;20026;-93
2022/11/14 03:21:12;;;;;;;333.48;37.30;;;;;;;18.64;100.00;97968.38;6010619;23;20397;-93
2022/11/14 03:23:38;;;;;;;318.92;33.25;;;;;;;19.21;100.00;97962.59;6009899;23;20023;-94
2022/11/14 03:26:07;;;;;;;368.60;32.90;;;;;;;19.41;100.00;97963.25;6010635;23;20083;-94
2022/11/14 03:28:33;;;;;;;387.90;38.47;;;;;;;18.70;100.00;97956.63;6010632;23;20011;-95
2022/11/14 03:30:58;;;;;;;329.65;32.17;;;;;;;19.28;100.00;97950.72;6036695;23;20344;-95
2022/11/14 03:33:24;;;;;;;292.02;30.92;;;;;;;18.70;100.00;97941.63;6036416;23;20011;-94
2022/11/14 03:35:50;;;;;;;318.65;33.42;;;;;;;17.80;100.00;97957.81;6009669;23;20006;-94
2022/11/14 03:38:17;;;;;;;355.60;35.40;;;;;;;17.73;100.00;97952.88;6011324;23;20022;-93
2022/11/14 03:40:42;;;;;;;324.23;33.08;;;;;;;17.55;100.00;97953.78;6011063;23;20019;-94
2022/11/14 03:43:08;;;;;;;276.27;29.85;;;;;;;17.41;100.00;97941.28;6009754;23;20694;-93
2022/11/14 03:45:35;;;;;;;307.33;30.15;;;;;;;17.50;100.00;97945.28;6011697;23;20066;-94
2022/11/14 03:48:01;;;;;;;253.52;24.05;;;;;;;17.91;100.00;97937.03;6010146;23;20019;-94
2022/11/14 03:50:26;;;;;;;258.77;28.80;;;;;;;18.17;100.00;97922.47;6011197;23;20019;-94
2022/11/14 03:52:52;;;;;;;262.70;29.98;;;;;;;18.30;100.00;97921.81;6010496;23;20544;-95
2022/11/14 03:55:17;;;;;;;209.60;23.50;;;;;;;18.24;100.00;97930.94;6011614;23;20082;-94
2022/11/14 03:57:42;;;;;;;270.15;27.02;;;;;;;16.57;100.00;97960.22;6010821;23;20634;-92
2022/11/14 04:00:09;;;;;;;304.48;29.08;;;;;;;16.99;100.00;97955.66;6010501;23;20083;-95
2022/11/14 04:02:34;;;;;;;281.77;30.48;;;;;;;17.36;100.00;97943.34;6035530;23;20023;-92
2022/11/14 04:05:00;;;;;;;361.13;31.58;;;;;;;17.45;100.00;97932.31;6010310;23;20068;-94
2022/11/14 04:07:25;;;;;;;381.50;33.65;;;;;;;17.27;100.00;97913.03;6010422;23;20011;-94
2022/11/14 04:09:51;;;;;;;206.75;25.00;;;;;;;17.45;100.00;97910.38;6010369;23;20389;-93
2022/11/14 04:12:17;;;;;;;241.85;25.42;;;;;;;23.42;100.00;97864.19;6035941;23;20018;-94
2022/11/14 04:14:43;;;;;;;254.52;26.70;;;;;;;18.50;100.00;97886.44;6009902;23;20026;-93
2022/11/14 04:17:08;;;;;;;180.52;21.77;;;;;;;18.04;100.00;97885.34;6035523;23;20082;-94
2022/11/14 04:19:37;;;;;;;185.77;22.23;;;;;;;17.50;100.00;97892.56;6010952;23;20019;-94
2022/11/14 04:22:02;;;;;;;178.63;22.63;;;;;;;17.73;100.00;97892.22;6010374;23;20055;-94
2022/11/14 04:24:28;;;;;;;158.70;22.38;;;;;;;18.26;100.00;97897.41;6011926;23;20015;-94
2022/11/14 04:26:53;;;;;;;195.10;23.70;;;;;;;17.18;100.00;97916.94;6010870;23;20062;-92
2022/11/14 04:29:19;;;;;;;218.25;25.02;;;;;;;16.69;100.00;97920.16;6011208;23;20030;-94
2022/11/14 04:31:44;;;;;;;187.45;22.40;;;;;;;17.22;100.00;97912.41;6017594;23;20034;-94
2022/11/14 04:34:10;;;;;;;223.85;24.35;;;;;;;17.71;100.00;97903.78;6028143;23;20011;-94
2022/11/14 04:36:35;;;;;;;266.33;27.35;;;;;;;16.88;100.00;97908.72;6010658;23;20405;-95
2022/11/14 04:39:00;;;;;;;252.02;28.55;;;;;;;17.34;100.00;97903.88;6037028;23;20037;-94
2022/11/14 04:41:27;;;;;;;259.35;27.90;;;;;;;17.68;100.00;97898.66;6016954;23;20007;-94
2022/11/14 04:43:52;;;;;;;308.67;29.23;;;;;;;18.28;100.00;97884.97;6030936;23;20007;-94
2022/11/14 04:46:18;;;;;;;259.90;26.58;;;;;;;17.86;100.00;97883.66;6021460;23;20013;-93
2022/11/14 04:48:43;;;;;;;274.13;29.15;;;;;;;18.12;100.00;97887.59;6012234;23;20026;-95
2022/11/14 04:51:10;;;;;;;224.35;26.42;;;;;;;17.61;100.00;97887.59;6011296;23;20048;-93
2022/11/14 04:53:35;;;;;;;244.70;24.95;;;;;;;17.20;100.00;97895.78;6010870;23;20011;-93
2022/11/14 04:56:01;;;;;;;214.80;24.63;;;;;;;17.22;100.00;97902.69;6011616;23;20489;-95
2022/11/14 04:58:29;;;;;;;269.15;25.77;;;;;;;16.42;100.00;97911.75;6011590;23;20011;-94
2022/11/14 05:00:56;;;;;;;290.23;29.52;;;;;;;17.53;100.00;97887.13;6036415;23;20023;-93
2022/11/14 05:03:22;;;;;;;283.35;27.27;;;;;;;17.70;100.00;97868.66;6035752;23;20033;-93
2022/11/14 05:05:48;;;;;;;286.40;28.83;;;;;;;16.83;100.00;97884.44;6063088;23;20015;-94
2022/11/14 05:08:14;;;;;;;299.27;26.88;;;;;;;16.74;100.00;97888.34;6063706;23;20021;-93
2022/11/14 05:10:43;;;;;;;311.58;27.38;;;;;;;18.32;100.00;97864.53;6062542;23;20015;-93
2022/11/14 05:13:09;;;;;;;213.25;22.33;;;;;;;17.00;100.00;97881.84;6066174;23;20093;-95
2022/11/14 05:15:35;;;;;;;136.43;18.25;;;;;;;17.85;100.00;97876.69;6066210;23;20440;-94
2022/11/14 05:18:00;;;;;;;137.00;17.83;;;;;;;17.19;100.00;97892.31;6066783;23;20046;-94
2022/11/14 05:20:25;;;;;;;135.88;18.25;;;;;;;17.17;100.00;97902.06;6066591;23;20117;-94
2022/11/14 05:22:55;;;;;;;95.90;15.27;;;;;;;17.64;100.00;97897.13;6065678;23;20018;-94
2022/11/14 05:25:21;;;;;;;136.35;18.75;;;;;;;17.05;100.00;97879.84;6066198;23;20015;-94
2022/11/14 05:27:48;;;;;;;123.03;16.15;;;;;;;17.35;100.00;97863.41;6065856;23;20022;-94
2022/11/14 05:30:15;;;;;;;122.30;18.50;;;;;;;17.14;100.00;97885.56;6067388;23;20018;-94
2022/11/14 05:32:40;;;;;;;91.38;15.77;;;;;;;16.94;100.00;97894.44;6065739;23;20105;-94
2022/11/14 05:35:06;;;;;;;73.93;15.65;;;;;;;17.00;100.00;97892.38;6066506;23;20105;-94
2022/11/14 05:37:33;;;;;;;112.70;17.30;;;;;;;16.67;100.00;97898.31;6066806;23;20015;-94
2022/11/14 05:39:59;;;;;;;139.57;17.73;;;;;;;16.67;100.00;97907.97;6067592;23;20026;-94
2022/11/14 05:42:29;;;;;;;118.20;17.75;;;;;;;16.82;100.00;97893.25;6067075;23;20014;-94
2022/11/14 05:44:54;;;;;;;166.80;19.50;;;;;;;16.32;100.00;97881.56;6066391;23;20014;-93
2022/11/14 05:47:19;;;;;;;214.63;21.77;;;;;;;17.09;100.00;97874.41;6065402;23;20170;-94
2022/11/14 05:49:45;;;;;;;250.00;23.85;;;;;;;16.95;100.00;97862.78;6065750;23;20037;-94
2022/11/14 05:52:11;;;;;;;246.90;23.15;;;;;;;16.94;100.00;97852.31;6066653;23;20030;-94
2022/11/14 05:54:37;;;;;;;218.60;20.00;;;;;;;16.73;100.00;97862.94;6067017;23;20029;-96
2022/11/14 05:57:03;;;;;;;142.65;18.92;;;;;;;16.66;100.00;97859.75;6068698;23;20007;-95
2022/11/14 05:59:28;;;;;;;242.65;22.60;;;;;;;17.29;100.00;97842.63;6066575;23;20036;-95
2022/11/14 06:01:55;;;;;;;199.90;24.38;;;;;;;17.51;100.00;97854.72;6067747;23;20014;-94
2022/11/14 06:04:21;;;;;;;268.42;25.48;;;;;;;16.98;100.00;97852.09;6066862;23;20042;-94
2022/11/14 06:06:46;;;;;;;211.38;22.00;;;;;;;17.67;100.00;97841.59;6066470;23;20352;-93
2022/11/14 06:09:12;;;;;;;148.70;18.38;;;;;;;18.06;100.00;97850.97;6065967;23;20017;-94
2022/11/14 06:11:37;;;;;;;132.45;18.08;;;;;;;17.33;100.00;97857.38;6066798;23;20015;-93
2022/11/14 06:14:03;;;;;;;205.77;20.52;;;;;;;16.50;100.00;97851.72;6067517;23;20015;-95
2022/11/14 06:16:29;;;;;;;215.45;23.17;;;;;;;16.73;100.00;97848.00;6067366;23;20592;-94
2022/11/14 06:18:54;;;;;;;170.50;19.02;;;;;;;17.38;100.00;97839.53;6065799;23;20010;-94
2022/11/14 06:21:22;;;;;;;138.43;19.08;;;;;;;16.95;100.00;97844.34;6067543;23;20038;-94
2022/11/14 06:23:48;;;;;;;182.65;22.38;;;;;;;18.33;100.00;97832.78;6067415;23;20015;-92
2022/11/14 06:26:20;;;;;;;148.60;19.50;;;;;;;17.04;100.00;97846.50;6066340;23;20098;-94
2022/11/14 06:28:46;;;;;;;118.13;17.45;;;;;;;17.38;100.00;97842.19;6068137;23;20025;-95
2022/11/14 06:31:11;;;;;;;144.88;19.30;;;;;;;17.35;100.00;97849.38;6069203;23;20034;-96
2022/11/14 06:33:36;;;;;;;217.93;22.13;;;;;;;16.89;100.00;97855.19;6067332;23;20019;-96
2022/11/14 06:36:05;;;;;;;208.60;22.50;;;;;;;17.03;100.00;97865.03;6067252;23;20010;-95
2022/11/14 06:38:32;;;;;;;144.07;19.40;;;;;;;17.35;100.00;97852.84;6067062;23;20452;-96
2022/11/14 06:41:18;;;;;;;256.88;23.48;;;;;;;17.15;100.00;97856.50;6067212;23;20025;-95
2022/11/14 06:43:46;;;;;;;178.88;20.42;;;;;;;18.05;100.00;97830.78;6067434;23;20022;-95
2022/11/14 06:46:19;;;;;;;129.43;18.73;;;;;;;18.11;100.00;97827.84;6067280;23;20695;-96
2022/11/14 06:48:45;;;;;;;152.90;20.98;;;;;;;17.88;100.00;97839.59;6083561;23;20015;-94
2022/11/14 06:51:15;;;;;;;135.80;20.17;;;;;;;17.50;100.00;97847.75;6089070;23;20071;-95
2022/11/14 06:53:42;;;;;;;85.65;18.25;;;;;;;18.19;100.00;97845.88;6069573;23;20015;-95
2022/11/14 06:56:10;;;;;;;102.70;18.30;;;;;;;17.94;100.00;97849.00;6070525;23;20015;-94
2022/11/14 06:58:38;;;;;;;69.72;16.55;;;;;;;17.65;100.00;97852.22;6069836;23;20014;-96
2022/11/14 07:01:06;;;;;;;136.98;20.15;;;;;;;17.58;100.00;97845.56;6080976;23;19999;-94
2022/11/14 07:03:33;;;;;;;124.72;19.83;;;;;;;17.88;100.00;97842.22;6072376;23;20093;-93
2022/11/14 07:05:59;;;;;;;143.27;18.23;;;;;;;18.08;100.00;97841.19;6066838;23;20201;-94
2022/11/14 07:08:25;;;;;;;147.70;19.02;;;;;;;18.01;100.00;97829.25;6065700;23;20007;-94
2022/11/14 07:10:50;;;;;;;205.70;21.83;;;;;;;17.40;100.00;97828.91;6066627;23;20038;-92
2022/11/14 07:13:16;;;;;;;239.68;24.67;;;;;;;17.16;100.00;97829.25;6064247;23;20062;-96
2022/11/14 07:15:51;;;;;;;238.07;24.75;;;;;;;17.49;100.00;97832.84;6065367;23;20042;-95
2022/11/14 07:18:19;;;;;;;266.73;24.98;;;;;;;17.51;100.00;97823.94;6065230;23;20047;-96
2022/11/14 07:20:46;;;;;;;267.80;23.08;;;;;;;17.83;100.00;97817.88;6065979;23;20014;-95
2022/11/14 07:23:12;;;;;;;200.93;20.85;;;;;;;17.81;100.00;97817.94;6065874;23;20630;-94
2022/11/14 07:25:37;;;;;;;169.95;20.83;;;;;;;18.20;100.00;97811.47;6060708;23;20014;-94
2022/11/14 07:28:03;;;;;;;247.00;24.13;;;;;;;17.92;100.00;97833.25;6069735;23;20018;-96
2022/11/14 07:30:35;;;;;;;292.95;26.13;;;;;;;17.94;100.00;97822.59;6063495;23;20022;-96
2022/11/14 07:33:01;;;;;;;253.48;22.20;;;;;;;17.58;100.00;97813.94;6063637;23;20221;-96
2022/11/14 07:35:27;;;;;;;190.82;22.30;;;;;;;17.55;100.00;97837.78;6068154;23;20007;-96
2022/11/14 07:38:05;;;;;;;116.13;16.05;;;;;;;18.19;100.00;97830.03;6065592;23;20045;-96
2022/11/14 07:40:30;;;;;;;79.15;14.73;;;;;;;17.68;100.00;97812.50;6066417;23;20014;-96
2022/11/14 07:42:58;;;;;;;62.17;15.10;;;;;;;17.85;100.00;97829.22;6066829;23;20015;-96
2022/11/14 07:45:24;;;;;;;54.88;14.25;;;;;;;18.53;100.00;97815.81;6068451;23;20010;-95
2022/11/14 07:47:52;;;;;;;93.18;15.90;;;;;;;18.46;100.00;97805.69;6067504;23;20015;-94
2022/11/14 07:50:18;;;;;;;75.25;12.98;;;;;;;18.54;100.00;97798.19;6066557;23;20021;-94
2022/11/14 07:52:58;;;;;;;100.45;15.68;;;;;;;17.78;100.00;97797.03;6067420;23;20007;-96
2022/11/14 07:55:24;;;;;;;77.13;15.30;;;;;;;18.42;100.00;97805.00;6065535;23;20021;-96
2022/11/14 07:57:53;;;;;;;58.50;13.07;;;;;;;18.51;100.00;97793.94;6066519;23;20002;-94
2022/11/14 08:00:20;;;;;;;89.97;14.95;;;;;;;17.79;100.00;97787.34;6064753;23;20022;-95
2022/11/14 08:02:46;;;;;;;73.20;14.63;;;;;;;18.50;100.00;97797.50;6064043;23;20026;-91
2022/11/14 08:05:12;;;;;;;83.30;14.85;;;;;;;19.06;100.00;97787.25;6063085;23;20430;-94
2022/11/14 08:07:37;;;;;;;101.00;15.23;;;;;;;18.52;100.00;97805.34;6064594;23;20330;-95
2022/11/14 08:10:03;;;;;;;129.68;18.17;;;;;;;17.86;100.00;97804.53;6064711;23;20010;-94
2022/11/14 08:12:29;;;;;;;134.48;16.27;;;;;;;18.01;100.00;97794.94;6066219;23;20003;-94
2022/11/14 08:14:54;;;;;;;116.20;16.58;;;;;;;17.17;100.00;97799.31;6064284;23;20011;-93
2022/11/14 08:17:21;;;;;;;153.07;18.75;;;;;;;17.04;100.00;97799.09;6066198;23;20453;-95
2022/11/14 08:19:46;;;;;;;137.43;17.88;;;;;;;17.33;100.00;97795.91;6065620;23;20251;-94
2022/11/14 08:22:12;;;;;;;127.90;17.15;;;;;;;17.25;100.00;97769.94;6065728;23;20445;-94
2022/11/14 08:24:37;;;;;;;296.52;24.55;;;;;;;16.57;100.00;97775.13;6065132;23;20014;-94
2022/11/14 08:27:02;;;;;;;256.50;23.00;;;;;;;16.88;100.00;97772.69;6066169;23;20081;-94
2022/11/14 08:29:28;;;;;;;184.63;18.67;;;;;;;17.68;100.00;97767.66;6066102;23;20017;-96
2022/11/14 08:31:56;;;;;;;322.83;26.52;;;;;;;17.02;100.00;97786.94;6067896;23;20041;-95
2022/11/14 08:34:24;;;;;;;284.23;23.35;;;;;;;16.93;100.00;97782.16;6066384;23;20014;-93
2022/11/14 08:36:50;;;;;;;233.27;21.42;;;;;;;17.73;100.00;97773.56;6065021;23;20022;-95
2022/11/14 08:39:15;;;;;;;268.27;23.83;;;;;;;18.15;100.00;97767.81;6063925;23;20015;-94
2022/11/14 08:41:41;;;;;;;401.30;30.10;;;;;;;17.63;100.00;97768.84;6065355;23;20019;-94
2022/11/14 08:44:06;;;;;;;332.17;28.23;;;;;;;18.62;100.00;97761.59;6065481;23;20007;-96
2022/11/14 08:46:32;;;;;;;190.15;19.00;;;;;;;17.65;100.00;97772.28;6064302;23;20074;-95
2022/11/14 08:51:58;;;;;;;180.05;18.70;;;;;;;18.51;100.00;97764.03;6150334;23;20073;-96
2022/11/14 08:54:25;;;;;;;272.75;23.55;;;;;;;18.38;100.00;97759.44;6126256;23;20048;-96
2022/11/14 08:56:50;;;;;;;174.30;16.30;;;;;;;18.53;100.00;97759.53;6127156;23;19993;-96
2022/11/14 08:59:15;;;;;;;162.43;16.73;;;;;;;18.71;100.00;97753.16;6125731;23;20067;-95
2022/11/14 09:01:41;;;;;;;211.25;20.90;;;;;;;18.69;100.00;97752.41;6127396;23;20020;-95
2022/11/14 09:04:08;;;;;;;129.05;18.08;;;;;;;19.34;100.00;97740.66;6126375;23;20013;-95
2022/11/14 09:06:33;;;;;;;231.00;22.33;;;;;;;18.51;100.00;97740.25;6143450;23;19997;-96
2022/11/14 09:08:59;;;;;;;258.85;23.77;;;;;;;18.95;100.00;97733.34;6147209;23;20033;-95
2022/11/14 09:11:24;;;;;;;248.25;22.98;;;;;;;18.58;100.00;97726.63;6130901;23;20001;-95
2022/11/14 09:13:50;;;;;;;241.25;21.15;;;;;;;17.75;100.00;97726.84;6129833;23;20013;-95
2022/11/14 09:16:15;;;;;;;159.00;16.25;;;;;;;18.62;100.00;97726.44;6159786;23;20021;-95
2022/11/14 09:18:41;;;;;;;218.20;20.35;;;;;;;18.14;100.00;97719.47;6149865;23;20005;-95
2022/11/14 09:21:07;;;;;;;132.75;15.75;;;;;;;18.37;100.00;97731.38;6138416;23;20018;-95
2022/11/14 09:23:34;;;;;;;129.80;15.77;;;;;;;18.54;100.00;97726.91;6130099;23;20022;-96
2022/11/14 09:26:07;;;;;;;165.57;17.10;;;;;;;18.41;100.00;97732.03;6129389;23;20033;-95
2022/11/14 09:28:33;;;;;;;155.90;18.58;;;;;;;17.87;100.00;97737.66;6127471;23;20012;-95
2022/11/14 09:31:03;;;;;;;131.90;15.43;;;;;;;18.24;100.00;97727.72;6124106;23;20009;-96
2022/11/14 09:33:29;;;;;;;117.88;14.45;;;;;;;18.51;100.00;97733.22;6126308;23;20018;-96
2022/11/14 09:35:59;;;;;;;105.35;14.90;;;;;;;18.54;100.00;97713.72;6128430;23;20588;-96
2022/11/14 09:38:26;;;;;;;114.05;14.10;;;;;;;18.48;100.00;97728.09;6127529;23;20770;-95
2022/11/14 09:41:07;;;;;;;117.97;14.57;;;;;;;18.30;100.00;97714.19;6126572;23;20708;-96
2022/11/14 09:44:11;;;;;;;130.77;15.90;;;;;;;17.82;100.00;97729.16;6128352;23;20001;-96
2022/11/14 09:46:43;;;;;;;120.90;13.20;;;;;;;17.65;100.00;97727.44;6127326;23;20121;-96
2022/11/14 09:49:36;;;;;;;109.33;15.23;;;;;;;18.62;100.00;97732.56;6127355;23;20092;-95
2022/11/14 09:52:29;;;;;;;95.65;14.02;;;;;;;19.62;100.00;97728.38;6125785;23;20017;-95
2022/11/14 09:54:58;;;;;;;104.50;14.95;;;;;;;19.83;100.00;97723.56;6123449;23;20021;-90
2022/11/14 09:57:25;;;;;;;106.30;15.57;;;;;;;19.12;100.00;97741.09;6126501;23;20018;-96
2022/11/14 09:59:50;;;;;;;238.98;21.52;;;;;;;17.62;100.00;97736.38;6128983;23;20001;-96
2022/11/14 10:02:46;;;;;;;209.43;20.30;;;;;;;18.40;100.00;97731.19;6129300;23;20614;-95
2022/11/14 10:05:23;;;;;;;178.82;19.75;;;;;;;18.36;100.00;97734.09;6085686;23;20017;-96
2022/11/14 10:08:08;;;;;;;246.52;23.23;;;;;;;18.86;100.00;97719.72;6131681;23;20423;-96
2022/11/14 10:10:49;;;;;;;266.60;25.27;;;;;;;18.03;100.00;97730.63;6129653;23;20017;-96
2022/11/14 10:13:41;;;;;;;285.48;25.38;;;;;;;17.48;100.00;97725.69;6129421;23;20013;-95
2022/11/14 10:16:13;;;;;;;317.02;25.15;;;;;;;17.77;100.00;97739.94;6130064;23;20791;-96
2022/11/14 10:18:59;;;;;;;339.63;29.13;;;;;;;18.06;100.00;97734.88;6128416;23;20041;-96
2022/11/14 10:21:39;;;;;;;245.15;22.52;;;;;;;17.96;100.00;97733.69;6128869;23;20008;-95
2022/11/14 10:24:47;;;;;;;203.00;21.35;;;;;;;18.56;100.00;97717.09;6128989;23;20018;-95
2022/11/14 10:27:26;;;;;;;291.25;35.25;;;;;;;18.05;100.00;97728.75;6087160;23;20099;-93
2022/11/14 10:30:09;;;;;;;345.65;28.67;;;;;;;17.68;100.00;97724.63;6130208;23;20014;-96
2022/11/14 10:32:40;;;;;;;282.60;25.03;;;;;;;18.08;100.00;97723.31;6130056;23;20061;-96
2022/11/14 10:35:12;;;;;;;277.88;25.15;;;;;;;17.91;100.00;97729.53;6129009;23;20267;-96
2022/11/14 10:38:21;;;;;;;317.35;25.77;;;;;;;17.97;100.00;97733.63;6131061;23;20023;-96
2022/11/14 10:40:51;;;;;;;211.02;24.60;;;;;;;18.16;100.00;97717.63;6104735;23;20076;-96
2022/11/14 10:43:27;;;;;;;207.05;28.83;;;;;;;18.66;100.00;97718.25;6127360;23;20037;-88
2022/11/14 10:45:59;;;;;;;172.93;30.40;;;;;;;18.93;100.00;97714.97;6126708;23;20002;-94
2022/11/14 10:48:34;;;;;;;172.25;26.52;;;;;;;18.11;100.00;97719.66;6127317;23;20590;-95
2022/11/14 10:51:11;;;;;;;179.98;26.85;;;;;;;18.50;100.00;97712.19;6107787;23;20113;-93
2022/11/14 10:53:49;;;;;;;140.73;22.60;;;;;;;18.67;100.00;97709.38;6097753;23;20028;-94
2022/11/14 10:56:14;;;;;;;107.65;18.83;;;;;;;18.28;100.00;97700.22;6099048;23;20034;-93
2022/11/14 10:58:41;;;;;;;114.68;13.85;;;;;;;19.29;100.00;97695.16;6097668;23;20017;-93
2022/11/14 11:01:31;;;;;;;98.40;14.02;;;;;;;18.82;100.00;97693.59;6096108;23;20040;-92
2022/11/14 11:04:09;;;;;;;99.18;15.43;;;;;;;18.58;100.00;97697.59;6096443;23;20014;-95
2022/11/14 11:06:37;;;;;;;97.93;12.57;;;;;;;18.94;100.00;97692.84;6095609;23;20002;-93
2022/11/14 11:12:41;;;;;;;145.25;17.98;;;;;;;18.95;100.00;97675.22;6061420;23;20520;-93
2022/11/14 11:15:15;;;;;;;117.82;18.45;;;;;;;19.14;100.00;97664.38;6069539;23;20126;-94
2022/11/14 11:18:26;;;;;;;123.00;16.73;;;;;;;19.14;100.00;97669.66;6096719;23;20050;-96
2022/11/14 11:21:08;;;;;;;131.68;21.92;;;;;;;18.81;100.00;97678.69;6013965;23;20067;-96